Terminal Aerodrome Forecast
Issued by NWS Wilmington, OH

Current Version | Previous Version | Graphics & Text | Print | Product List | Glossary On
Versions: 1 2 3 4 5 6 7 8 9 10 11 12 13 14 15 16
000
FTUS41 KILN 170537
TAFDAY
TAF
KDAY 170537Z 1706/1806 25006KT P6SM -SN OVC012
     FM171200 26006KT P6SM SCT012
     FM171700 25009KT P6SM SCT035 SCT150
     FM180000 23010KT P6SM SCT120 BKN200=

USA.gov is the U.S. government's official web portal to all federal, state and local government web resources and services.